sensor_id;sensor_type;location;lat;lon;timestamp;temperature;humidity
65462;DHT22;53236;43.666;18.444;2023-05-14T00:01:24;10.70;99.90
65462;DHT22;53236;43.666;18.444;2023-05-14T00:03:50;10.70;99.90
65462;DHT22;53236;43.666;18.444;2023-05-14T00:06:16;10.60;99.90
65462;DHT22;53236;43.666;18.444;2023-05-14T00:08:42;10.60;99.90
65462;DHT22;53236;43.666;18.444;2023-05-14T00:11:07;10.60;99.90
65462;DHT22;53236;43.666;18.444;2023-05-14T00:13:34;10.60;99.90
65462;DHT22;53236;43.666;18.444;2023-05-14T00:16:00;10.60;99.90
65462;DHT22;53236;43.666;18.444;2023-05-14T00:18:26;10.60;99.90
65462;DHT22;53236;43.666;18.444;2023-05-14T00:20:52;10.50;99.90
65462;DHT22;53236;43.666;18.444;2023-05-14T00:23:20;10.60;99.90
65462;DHT22;53236;43.666;18.444;2023-05-14T00:25:46;10.60;99.90
65462;DHT22;53236;43.666;18.444;2023-05-14T00:28:12;10.60;99.90
65462;DHT22;53236;43.666;18.444;2023-05-14T00:30:37;10.60;99.90
65462;DHT22;53236;43.666;18.444;2023-05-14T00:33:04;10.70;99.90
65462;DHT22;53236;43.666;18.444;2023-05-14T00:35:30;10.60;99.90
65462;DHT22;53236;43.666;18.444;2023-05-14T00:37:56;10.60;99.90
65462;DHT22;53236;43.666;18.444;2023-05-14T00:40:25;10.60;99.90
65462;DHT22;53236;43.666;18.444;2023-05-14T00:42:52;10.60;99.90
65462;DHT22;53236;43.666;18.444;2023-05-14T00:45:18;10.60;99.90
65462;DHT22;53236;43.666;18.444;2023-05-14T00:47:44;10.60;99.90
65462;DHT22;53236;43.666;18.444;2023-05-14T00:50:10;10.60;99.90
65462;DHT22;53236;43.666;18.444;2023-05-14T00:52:37;10.60;99.90
65462;DHT22;53236;43.666;18.444;2023-05-14T00:55:05;10.50;99.90
65462;DHT22;53236;43.666;18.444;2023-05-14T00:57:32;10.60;99.90
65462;DHT22;53236;43.666;18.444;2023-05-14T00:59:58;10.60;99.90
65462;DHT22;53236;43.666;18.444;2023-05-14T01:02:24;10.60;99.90
65462;DHT22;53236;43.666;18.444;2023-05-14T01:04:51;10.60;99.90
65462;DHT22;53236;43.666;18.444;2023-05-14T01:07:22;10.60;99.90
65462;DHT22;53236;43.666;18.444;2023-05-14T01:13:06;10.50;99.90
65462;DHT22;53236;43.666;18.444;2023-05-14T01:15:35;10.50;99.90
65462;DHT22;53236;43.666;18.444;2023-05-14T01:18:09;10.50;99.90
65462;DHT22;53236;43.666;18.444;2023-05-14T01:20:35;10.60;99.90
65462;DHT22;53236;43.666;18.444;2023-05-14T01:23:02;10.60;99.90
65462;DHT22;53236;43.666;18.444;2023-05-14T01:25:29;10.60;99.90
65462;DHT22;53236;43.666;18.444;2023-05-14T01:30:41;10.60;99.90
65462;DHT22;53236;43.666;18.444;2023-05-14T01:33:13;10.60;99.90
65462;DHT22;53236;43.666;18.444;2023-05-14T01:38:08;10.50;99.90
65462;DHT22;53236;43.666;18.444;2023-05-14T01:40:35;10.50;99.90
65462;DHT22;53236;43.666;18.444;2023-05-14T01:43:02;10.40;99.90
65462;DHT22;53236;43.666;18.444;2023-05-14T01:45:30;10.40;99.90
65462;DHT22;53236;43.666;18.444;2023-05-14T01:47:56;10.40;99.90
65462;DHT22;53236;43.666;18.444;2023-05-14T01:50:22;10.50;99.90
65462;DHT22;53236;43.666;18.444;2023-05-14T01:52:48;10.40;99.90
65462;DHT22;53236;43.666;18.444;2023-05-14T01:55:14;10.50;99.90
65462;DHT22;53236;43.666;18.444;2023-05-14T01:57:40;10.50;99.90
65462;DHT22;53236;43.666;18.444;2023-05-14T02:00:06;10.50;99.90
65462;DHT22;53236;43.666;18.444;2023-05-14T02:02:32;10.50;99.90
65462;DHT22;53236;43.666;18.444;2023-05-14T02:04:58;10.50;99.90
65462;DHT22;53236;43.666;18.444;2023-05-14T02:07:24;10.50;99.90
65462;DHT22;53236;43.666;18.444;2023-05-14T02:09:49;10.50;99.90
65462;DHT22;53236;43.666;18.444;2023-05-14T02:12:15;10.50;99.90
65462;DHT22;53236;43.666;18.444;2023-05-14T02:14:41;10.60;99.90
65462;DHT22;53236;43.666;18.444;2023-05-14T02:17:07;10.50;99.90
65462;DHT22;53236;43.666;18.444;2023-05-14T02:19:33;10.40;99.90
65462;DHT22;53236;43.666;18.444;2023-05-14T02:21:59;10.40;99.90
65462;DHT22;53236;43.666;18.444;2023-05-14T02:24:25;10.40;99.90
65462;DHT22;53236;43.666;18.444;2023-05-14T02:26:51;10.40;99.90
65462;DHT22;53236;43.666;18.444;2023-05-14T02:29:17;10.50;99.90
65462;DHT22;53236;43.666;18.444;2023-05-14T02:31:43;10.50;99.90
65462;DHT22;53236;43.666;18.444;2023-05-14T02:34:09;10.40;99.90
65462;DHT22;53236;43.666;18.444;2023-05-14T02:36:34;10.40;99.90
65462;DHT22;53236;43.666;18.444;2023-05-14T02:39:00;10.40;99.90
65462;DHT22;53236;43.666;18.444;2023-05-14T02:41:26;10.40;99.90
65462;DHT22;53236;43.666;18.444;2023-05-14T02:43:53;10.50;99.90
65462;DHT22;53236;43.666;18.444;2023-05-14T02:46:19;10.50;99.90
65462;DHT22;53236;43.666;18.444;2023-05-14T02:48:45;10.50;99.90
65462;DHT22;53236;43.666;18.444;2023-05-14T02:51:11;10.50;99.90
65462;DHT22;53236;43.666;18.444;2023-05-14T02:53:36;10.50;99.90
65462;DHT22;53236;43.666;18.444;2023-05-14T02:56:02;10.40;99.90
65462;DHT22;53236;43.666;18.444;2023-05-14T02:58:28;10.50;99.90
65462;DHT22;53236;43.666;18.444;2023-05-14T03:00:54;10.50;99.90
65462;DHT22;53236;43.666;18.444;2023-05-14T03:03:20;10.50;99.90
65462;DHT22;53236;43.666;18.444;2023-05-14T03:05:45;10.50;99.90
65462;DHT22;53236;43.666;18.444;2023-05-14T03:08:11;10.50;99.90
65462;DHT22;53236;43.666;18.444;2023-05-14T03:10:37;10.50;99.90
65462;DHT22;53236;43.666;18.444;2023-05-14T03:13:03;10.50;99.90
65462;DHT22;53236;43.666;18.444;2023-05-14T03:15:28;10.40;99.90
65462;DHT22;53236;43.666;18.444;2023-05-14T03:17:54;10.50;99.90
65462;DHT22;53236;43.666;18.444;2023-05-14T03:20:22;10.50;99.90
65462;DHT22;53236;43.666;18.444;2023-05-14T03:22:48;10.40;99.90
65462;DHT22;53236;43.666;18.444;2023-05-14T03:25:14;10.30;99.90
65462;DHT22;53236;43.666;18.444;2023-05-14T03:27:40;10.30;99.90
65462;DHT22;53236;43.666;18.444;2023-05-14T03:30:06;10.40;99.90
65462;DHT22;53236;43.666;18.444;2023-05-14T03:32:32;10.40;99.90
65462;DHT22;53236;43.666;18.444;2023-05-14T03:34:58;10.40;99.90
65462;DHT22;53236;43.666;18.444;2023-05-14T03:37:23;10.40;99.90
65462;DHT22;53236;43.666;18.444;2023-05-14T03:39:49;10.40;99.90
65462;DHT22;53236;43.666;18.444;2023-05-14T03:42:15;10.40;99.90
65462;DHT22;53236;43.666;18.444;2023-05-14T03:44:41;10.40;99.90
65462;DHT22;53236;43.666;18.444;2023-05-14T03:47:06;10.50;99.90
65462;DHT22;53236;43.666;18.444;2023-05-14T03:49:32;10.50;99.90
65462;DHT22;53236;43.666;18.444;2023-05-14T03:51:58;10.50;99.90
65462;DHT22;53236;43.666;18.444;2023-05-14T03:54:24;10.60;99.90
65462;DHT22;53236;43.666;18.444;2023-05-14T03:56:50;10.70;99.90
65462;DHT22;53236;43.666;18.444;2023-05-14T03:59:16;10.70;99.90
65462;DHT22;53236;43.666;18.444;2023-05-14T04:01:42;10.70;99.90
65462;DHT22;53236;43.666;18.444;2023-05-14T04:04:09;10.70;99.90
65462;DHT22;53236;43.666;18.444;2023-05-14T04:06:35;10.70;99.90
65462;DHT22;53236;43.666;18.444;2023-05-14T04:09:01;10.80;99.90
65462;DHT22;53236;43.666;18.444;2023-05-14T04:11:26;10.80;99.90
65462;DHT22;53236;43.666;18.444;2023-05-14T04:13:52;10.70;99.90
65462;DHT22;53236;43.666;18.444;2023-05-14T04:16:18;10.60;99.90
65462;DHT22;53236;43.666;18.444;2023-05-14T04:18:43;10.70;99.90
65462;DHT22;53236;43.666;18.444;2023-05-14T04:21:10;10.60;99.90
65462;DHT22;53236;43.666;18.444;2023-05-14T04:23:36;10.60;99.90
65462;DHT22;53236;43.666;18.444;2023-05-14T04:26:02;10.70;99.90
65462;DHT22;53236;43.666;18.444;2023-05-14T04:28:28;10.70;99.90
65462;DHT22;53236;43.666;18.444;2023-05-14T04:30:53;10.70;99.90
65462;DHT22;53236;43.666;18.444;2023-05-14T04:33:19;10.80;99.90
65462;DHT22;53236;43.666;18.444;2023-05-14T04:35:45;10.80;99.90
65462;DHT22;53236;43.666;18.444;2023-05-14T04:38:11;10.80;99.90
65462;DHT22;53236;43.666;18.444;2023-05-14T04:40:38;10.90;99.90
65462;DHT22;53236;43.666;18.444;2023-05-14T04:43:06;10.90;99.90
65462;DHT22;53236;43.666;18.444;2023-05-14T04:45:32;11.00;99.90
65462;DHT22;53236;43.666;18.444;2023-05-14T04:47:58;10.90;99.90
65462;DHT22;53236;43.666;18.444;2023-05-14T04:50:24;10.90;99.90
65462;DHT22;53236;43.666;18.444;2023-05-14T04:52:51;10.80;99.90
65462;DHT22;53236;43.666;18.444;2023-05-14T04:55:17;10.90;99.90
65462;DHT22;53236;43.666;18.444;2023-05-14T04:57:42;10.90;99.90
65462;DHT22;53236;43.666;18.444;2023-05-14T05:00:09;11.00;99.90
65462;DHT22;53236;43.666;18.444;2023-05-14T05:02:35;11.10;99.90
65462;DHT22;53236;43.666;18.444;2023-05-14T05:05:02;11.30;99.90
65462;DHT22;53236;43.666;18.444;2023-05-14T05:07:28;11.30;99.90
65462;DHT22;53236;43.666;18.444;2023-05-14T05:09:54;11.30;99.90
65462;DHT22;53236;43.666;18.444;2023-05-14T05:12:20;11.30;99.90
65462;DHT22;53236;43.666;18.444;2023-05-14T05:14:45;11.40;99.90
65462;DHT22;53236;43.666;18.444;2023-05-14T05:17:11;11.40;99.90
65462;DHT22;53236;43.666;18.444;2023-05-14T05:19:37;11.30;99.90
65462;DHT22;53236;43.666;18.444;2023-05-14T05:22:03;11.20;99.90
65462;DHT22;53236;43.666;18.444;2023-05-14T05:24:29;11.20;99.90
65462;DHT22;53236;43.666;18.444;2023-05-14T05:26:55;11.20;99.90
65462;DHT22;53236;43.666;18.444;2023-05-14T05:29:21;11.10;99.90
65462;DHT22;53236;43.666;18.444;2023-05-14T05:31:48;11.10;99.90
65462;DHT22;53236;43.666;18.444;2023-05-14T05:34:14;11.10;99.90
65462;DHT22;53236;43.666;18.444;2023-05-14T05:36:40;11.10;99.90
65462;DHT22;53236;43.666;18.444;2023-05-14T05:39:05;11.10;99.90
65462;DHT22;53236;43.666;18.444;2023-05-14T05:41:31;11.20;99.90
65462;DHT22;53236;43.666;18.444;2023-05-14T05:43:57;11.30;99.90
65462;DHT22;53236;43.666;18.444;2023-05-14T05:46:23;11.40;99.90
65462;DHT22;53236;43.666;18.444;2023-05-14T05:48:49;11.40;99.90
65462;DHT22;53236;43.666;18.444;2023-05-14T05:51:15;11.50;99.90
65462;DHT22;53236;43.666;18.444;2023-05-14T05:53:41;11.50;99.90
65462;DHT22;53236;43.666;18.444;2023-05-14T05:56:06;11.50;99.90
65462;DHT22;53236;43.666;18.444;2023-05-14T05:58:32;11.60;99.90
65462;DHT22;53236;43.666;18.444;2023-05-14T06:00:58;11.60;99.90
65462;DHT22;53236;43.666;18.444;2023-05-14T06:03:24;11.60;99.90
65462;DHT22;53236;43.666;18.444;2023-05-14T06:05:50;11.70;99.90
65462;DHT22;53236;43.666;18.444;2023-05-14T06:08:17;11.80;99.90
65462;DHT22;53236;43.666;18.444;2023-05-14T06:10:43;11.90;99.90
65462;DHT22;53236;43.666;18.444;2023-05-14T06:13:09;12.10;99.90
65462;DHT22;53236;43.666;18.444;2023-05-14T06:15:35;12.10;99.90
65462;DHT22;53236;43.666;18.444;2023-05-14T06:18:00;12.00;99.90
65462;DHT22;53236;43.666;18.444;2023-05-14T06:20:26;12.10;99.90
65462;DHT22;53236;43.666;18.444;2023-05-14T06:22:52;12.30;99.90
65462;DHT22;53236;43.666;18.444;2023-05-14T06:25:18;12.40;99.90
65462;DHT22;53236;43.666;18.444;2023-05-14T06:27:44;12.50;99.90
65462;DHT22;53236;43.666;18.444;2023-05-14T06:30:10;12.30;99.90
65462;DHT22;53236;43.666;18.444;2023-05-14T06:32:36;12.40;99.90
65462;DHT22;53236;43.666;18.444;2023-05-14T06:35:02;12.50;99.90
65462;DHT22;53236;43.666;18.444;2023-05-14T06:37:28;12.50;99.90
65462;DHT22;53236;43.666;18.444;2023-05-14T06:39:54;12.60;99.90
65462;DHT22;53236;43.666;18.444;2023-05-14T06:42:20;12.70;99.90
65462;DHT22;53236;43.666;18.444;2023-05-14T06:44:45;12.70;99.90
65462;DHT22;53236;43.666;18.444;2023-05-14T06:47:11;12.70;99.90
65462;DHT22;53236;43.666;18.444;2023-05-14T06:49:37;12.70;99.90
65462;DHT22;53236;43.666;18.444;2023-05-14T06:52:04;12.80;99.90
65462;DHT22;53236;43.666;18.444;2023-05-14T06:54:30;12.80;99.90
65462;DHT22;53236;43.666;18.444;2023-05-14T06:56:56;12.80;99.90
65462;DHT22;53236;43.666;18.444;2023-05-14T06:59:22;12.70;99.90
65462;DHT22;53236;43.666;18.444;2023-05-14T07:01:48;12.80;99.90
65462;DHT22;53236;43.666;18.444;2023-05-14T07:04:14;12.80;99.90
65462;DHT22;53236;43.666;18.444;2023-05-14T07:06:40;12.80;99.90
65462;DHT22;53236;43.666;18.444;2023-05-14T07:09:05;12.90;99.90
65462;DHT22;53236;43.666;18.444;2023-05-14T07:11:32;12.80;99.90
65462;DHT22;53236;43.666;18.444;2023-05-14T07:13:58;12.60;99.90
65462;DHT22;53236;43.666;18.444;2023-05-14T07:16:24;12.60;99.90
65462;DHT22;53236;43.666;18.444;2023-05-14T07:18:50;12.60;99.90
65462;DHT22;53236;43.666;18.444;2023-05-14T07:21:16;12.80;99.90
65462;DHT22;53236;43.666;18.444;2023-05-14T07:23:42;13.00;99.90
65462;DHT22;53236;43.666;18.444;2023-05-14T07:26:08;13.10;99.90
65462;DHT22;53236;43.666;18.444;2023-05-14T07:28:34;13.30;99.90
65462;DHT22;53236;43.666;18.444;2023-05-14T07:31:00;13.40;99.90
65462;DHT22;53236;43.666;18.444;2023-05-14T07:33:26;13.50;99.90
65462;DHT22;53236;43.666;18.444;2023-05-14T07:35:52;13.50;99.90
65462;DHT22;53236;43.666;18.444;2023-05-14T07:38:19;13.40;99.90
65462;DHT22;53236;43.666;18.444;2023-05-14T07:40:45;13.30;99.90
65462;DHT22;53236;43.666;18.444;2023-05-14T07:43:11;13.40;99.90
65462;DHT22;53236;43.666;18.444;2023-05-14T07:45:37;13.50;99.90
65462;DHT22;53236;43.666;18.444;2023-05-14T07:48:06;13.40;99.90
65462;DHT22;53236;43.666;18.444;2023-05-14T07:50:31;13.40;99.90
65462;DHT22;53236;43.666;18.444;2023-05-14T07:52:57;13.50;99.90
65462;DHT22;53236;43.666;18.444;2023-05-14T07:55:23;13.60;99.90
65462;DHT22;53236;43.666;18.444;2023-05-14T07:57:48;13.70;99.90
65462;DHT22;53236;43.666;18.444;2023-05-14T08:00:14;13.70;99.90
65462;DHT22;53236;43.666;18.444;2023-05-14T08:02:41;13.70;99.90
65462;DHT22;53236;43.666;18.444;2023-05-14T08:05:08;13.70;99.90
65462;DHT22;53236;43.666;18.444;2023-05-14T08:07:34;13.70;99.90
65462;DHT22;53236;43.666;18.444;2023-05-14T08:10:00;13.70;99.90
65462;DHT22;53236;43.666;18.444;2023-05-14T08:12:26;13.70;99.90
65462;DHT22;53236;43.666;18.444;2023-05-14T08:14:52;13.70;99.90
65462;DHT22;53236;43.666;18.444;2023-05-14T08:17:17;13.70;99.90
65462;DHT22;53236;43.666;18.444;2023-05-14T08:19:43;13.70;99.90
65462;DHT22;53236;43.666;18.444;2023-05-14T08:22:09;13.90;99.90
65462;DHT22;53236;43.666;18.444;2023-05-14T08:24:35;13.90;99.90
65462;DHT22;53236;43.666;18.444;2023-05-14T08:27:01;13.90;99.90
65462;DHT22;53236;43.666;18.444;2023-05-14T08:29:27;14.00;99.90
65462;DHT22;53236;43.666;18.444;2023-05-14T08:31:53;14.00;99.90
65462;DHT22;53236;43.666;18.444;2023-05-14T08:34:18;14.00;99.90
65462;DHT22;53236;43.666;18.444;2023-05-14T08:36:44;14.10;99.90
65462;DHT22;53236;43.666;18.444;2023-05-14T08:39:10;14.00;99.90
65462;DHT22;53236;43.666;18.444;2023-05-14T08:41:36;14.20;99.90
65462;DHT22;53236;43.666;18.444;2023-05-14T08:44:18;14.20;99.90
65462;DHT22;53236;43.666;18.444;2023-05-14T08:46:44;14.30;99.90
65462;DHT22;53236;43.666;18.444;2023-05-14T08:52:05;14.20;99.90
65462;DHT22;53236;43.666;18.444;2023-05-14T08:54:31;14.00;99.90
65462;DHT22;53236;43.666;18.444;2023-05-14T08:56:57;14.20;99.90
65462;DHT22;53236;43.666;18.444;2023-05-14T08:59:24;14.30;99.90
65462;DHT22;53236;43.666;18.444;2023-05-14T09:01:53;14.50;99.90
65462;DHT22;53236;43.666;18.444;2023-05-14T09:04:22;14.70;99.90
65462;DHT22;53236;43.666;18.444;2023-05-14T09:06:50;14.80;99.90
65462;DHT22;53236;43.666;18.444;2023-05-14T09:09:16;14.90;99.90
65462;DHT22;53236;43.666;18.444;2023-05-14T09:11:45;14.90;99.90
65462;DHT22;53236;43.666;18.444;2023-05-14T09:14:10;14.80;99.90
65462;DHT22;53236;43.666;18.444;2023-05-14T09:16:37;14.90;99.90
65462;DHT22;53236;43.666;18.444;2023-05-14T09:19:05;15.00;99.90
65462;DHT22;53236;43.666;18.444;2023-05-14T09:21:32;15.00;99.90
65462;DHT22;53236;43.666;18.444;2023-05-14T09:23:58;15.00;99.90
65462;DHT22;53236;43.666;18.444;2023-05-14T09:26:24;15.00;99.90
65462;DHT22;53236;43.666;18.444;2023-05-14T09:28:57;15.00;99.90
65462;DHT22;53236;43.666;18.444;2023-05-14T09:31:32;14.90;99.90
65462;DHT22;53236;43.666;18.444;2023-05-14T09:33:58;14.90;99.90
65462;DHT22;53236;43.666;18.444;2023-05-14T09:36:25;14.90;99.90
65462;DHT22;53236;43.666;18.444;2023-05-14T09:38:56;15.00;99.90
65462;DHT22;53236;43.666;18.444;2023-05-14T09:41:22;15.00;99.90
65462;DHT22;53236;43.666;18.444;2023-05-14T09:43:49;15.10;99.90
65462;DHT22;53236;43.666;18.444;2023-05-14T09:46:16;15.10;99.90
65462;DHT22;53236;43.666;18.444;2023-05-14T09:48:41;15.10;99.90
65462;DHT22;53236;43.666;18.444;2023-05-14T09:51:09;15.00;99.90
65462;DHT22;53236;43.666;18.444;2023-05-14T09:53:36;14.90;99.90
65462;DHT22;53236;43.666;18.444;2023-05-14T09:56:02;14.90;99.90
65462;DHT22;53236;43.666;18.444;2023-05-14T09:58:27;15.10;99.90
65462;DHT22;53236;43.666;18.444;2023-05-14T10:00:56;15.10;99.90
65462;DHT22;53236;43.666;18.444;2023-05-14T10:03:24;15.20;99.90
65462;DHT22;53236;43.666;18.444;2023-05-14T10:05:52;15.20;99.90
65462;DHT22;53236;43.666;18.444;2023-05-14T10:08:23;15.20;99.90
65462;DHT22;53236;43.666;18.444;2023-05-14T10:10:53;15.20;99.90
65462;DHT22;53236;43.666;18.444;2023-05-14T10:13:22;15.30;99.90
65462;DHT22;53236;43.666;18.444;2023-05-14T10:18:22;15.30;99.90
65462;DHT22;53236;43.666;18.444;2023-05-14T10:21:03;15.50;99.90
65462;DHT22;53236;43.666;18.444;2023-05-14T10:23:30;15.60;99.90
65462;DHT22;53236;43.666;18.444;2023-05-14T10:25:57;15.80;99.90
65462;DHT22;53236;43.666;18.444;2023-05-14T10:28:23;15.70;99.90
65462;DHT22;53236;43.666;18.444;2023-05-14T10:30:49;15.70;99.90
65462;DHT22;53236;43.666;18.444;2023-05-14T10:33:16;15.60;99.90
65462;DHT22;53236;43.666;18.444;2023-05-14T10:36:03;15.50;99.90
65462;DHT22;53236;43.666;18.444;2023-05-14T10:38:36;15.40;99.90
65462;DHT22;53236;43.666;18.444;2023-05-14T10:41:03;15.40;99.90
65462;DHT22;53236;43.666;18.444;2023-05-14T10:43:29;15.50;99.90
65462;DHT22;53236;43.666;18.444;2023-05-14T10:45:57;15.60;99.90
65462;DHT22;53236;43.666;18.444;2023-05-14T10:48:24;15.70;99.90
65462;DHT22;53236;43.666;18.444;2023-05-14T10:50:50;15.60;99.90
65462;DHT22;53236;43.666;18.444;2023-05-14T10:53:17;15.50;99.90
65462;DHT22;53236;43.666;18.444;2023-05-14T10:55:43;15.40;99.90
65462;DHT22;53236;43.666;18.444;2023-05-14T10:58:11;15.40;99.90
65462;DHT22;53236;43.666;18.444;2023-05-14T11:00:37;15.40;99.90
65462;DHT22;53236;43.666;18.444;2023-05-14T11:03:05;15.40;99.90
65462;DHT22;53236;43.666;18.444;2023-05-14T11:05:32;15.30;99.90
65462;DHT22;53236;43.666;18.444;2023-05-14T11:07:58;15.30;99.90
65462;DHT22;53236;43.666;18.444;2023-05-14T11:10:26;15.30;99.90
65462;DHT22;53236;43.666;18.444;2023-05-14T11:12:55;15.20;99.90
65462;DHT22;53236;43.666;18.444;2023-05-14T11:15:23;15.30;99.90
65462;DHT22;53236;43.666;18.444;2023-05-14T11:17:50;15.30;99.90
65462;DHT22;53236;43.666;18.444;2023-05-14T11:20:17;15.30;99.90
65462;DHT22;53236;43.666;18.444;2023-05-14T11:22:44;15.20;99.90
65462;DHT22;53236;43.666;18.444;2023-05-14T11:25:11;15.30;99.90
65462;DHT22;53236;43.666;18.444;2023-05-14T11:27:40;15.40;99.90
65462;DHT22;53236;43.666;18.444;2023-05-14T11:30:16;15.30;99.90
65462;DHT22;53236;43.666;18.444;2023-05-14T11:32:48;15.30;99.90
65462;DHT22;53236;43.666;18.444;2023-05-14T11:35:15;15.20;99.90
65462;DHT22;53236;43.666;18.444;2023-05-14T11:37:41;15.20;99.90
65462;DHT22;53236;43.666;18.444;2023-05-14T11:40:13;15.20;99.90
65462;DHT22;53236;43.666;18.444;2023-05-14T11:42:39;15.30;99.90
65462;DHT22;53236;43.666;18.444;2023-05-14T11:45:05;15.20;99.90
65462;DHT22;53236;43.666;18.444;2023-05-14T11:47:31;15.30;99.90
65462;DHT22;53236;43.666;18.444;2023-05-14T11:49:58;15.40;99.90
65462;DHT22;53236;43.666;18.444;2023-05-14T11:52:25;15.50;99.90
65462;DHT22;53236;43.666;18.444;2023-05-14T11:54:50;15.50;99.90
65462;DHT22;53236;43.666;18.444;2023-05-14T11:57:18;15.50;99.90
65462;DHT22;53236;43.666;18.444;2023-05-14T11:59:46;15.50;99.90
65462;DHT22;53236;43.666;18.444;2023-05-14T12:02:15;15.50;99.90
65462;DHT22;53236;43.666;18.444;2023-05-14T12:04:42;15.60;99.90
65462;DHT22;53236;43.666;18.444;2023-05-14T12:07:09;15.60;99.90
65462;DHT22;53236;43.666;18.444;2023-05-14T12:09:37;15.60;99.90
65462;DHT22;53236;43.666;18.444;2023-05-14T12:12:11;15.70;99.90
65462;DHT22;53236;43.666;18.444;2023-05-14T12:14:39;15.70;99.90
65462;DHT22;53236;43.666;18.444;2023-05-14T12:19:40;15.90;99.90
65462;DHT22;53236;43.666;18.444;2023-05-14T12:22:08;16.10;99.90
65462;DHT22;53236;43.666;18.444;2023-05-14T12:24:34;16.20;99.90
65462;DHT22;53236;43.666;18.444;2023-05-14T12:27:01;16.30;99.90
65462;DHT22;53236;43.666;18.444;2023-05-14T12:29:27;16.30;99.90
65462;DHT22;53236;43.666;18.444;2023-05-14T12:31:52;16.30;99.90
65462;DHT22;53236;43.666;18.444;2023-05-14T12:34:18;16.40;99.90
65462;DHT22;53236;43.666;18.444;2023-05-14T12:36:44;16.40;99.90
65462;DHT22;53236;43.666;18.444;2023-05-14T12:39:10;16.50;99.90
65462;DHT22;53236;43.666;18.444;2023-05-14T12:41:36;16.60;99.90
65462;DHT22;53236;43.666;18.444;2023-05-14T12:44:03;16.60;99.90
65462;DHT22;53236;43.666;18.444;2023-05-14T12:46:29;16.80;99.90
65462;DHT22;53236;43.666;18.444;2023-05-14T12:48:55;16.90;99.90
65462;DHT22;53236;43.666;18.444;2023-05-14T12:51:21;16.80;99.90
65462;DHT22;53236;43.666;18.444;2023-05-14T12:53:47;16.80;99.90
65462;DHT22;53236;43.666;18.444;2023-05-14T12:56:14;16.80;99.90
65462;DHT22;53236;43.666;18.444;2023-05-14T12:58:40;16.70;99.90
65462;DHT22;53236;43.666;18.444;2023-05-14T13:01:06;16.60;99.90
65462;DHT22;53236;43.666;18.444;2023-05-14T13:03:32;16.60;99.90
65462;DHT22;53236;43.666;18.444;2023-05-14T13:05:58;16.60;99.90
65462;DHT22;53236;43.666;18.444;2023-05-14T13:08:24;16.50;99.90
65462;DHT22;53236;43.666;18.444;2023-05-14T13:10:54;16.50;99.90
65462;DHT22;53236;43.666;18.444;2023-05-14T13:13:20;16.50;99.90
65462;DHT22;53236;43.666;18.444;2023-05-14T13:15:46;16.40;99.90
65462;DHT22;53236;43.666;18.444;2023-05-14T13:18:14;16.40;99.90
65462;DHT22;53236;43.666;18.444;2023-05-14T13:20:41;16.40;99.90
65462;DHT22;53236;43.666;18.444;2023-05-14T13:23:07;16.40;99.90
65462;DHT22;53236;43.666;18.444;2023-05-14T13:25:33;16.30;99.90
65462;DHT22;53236;43.666;18.444;2023-05-14T13:27:59;16.40;99.90
65462;DHT22;53236;43.666;18.444;2023-05-14T13:30:25;16.30;99.90
65462;DHT22;53236;43.666;18.444;2023-05-14T13:32:51;16.30;99.90
65462;DHT22;53236;43.666;18.444;2023-05-14T13:35:17;16.30;99.90
65462;DHT22;53236;43.666;18.444;2023-05-14T13:37:43;16.30;99.90
65462;DHT22;53236;43.666;18.444;2023-05-14T13:40:09;16.40;99.90
65462;DHT22;53236;43.666;18.444;2023-05-14T13:42:36;16.40;99.90
65462;DHT22;53236;43.666;18.444;2023-05-14T13:45:04;16.30;99.90
65462;DHT22;53236;43.666;18.444;2023-05-14T13:47:30;16.20;99.90
65462;DHT22;53236;43.666;18.444;2023-05-14T13:49:57;16.20;99.90
65462;DHT22;53236;43.666;18.444;2023-05-14T13:52:23;16.20;99.90
65462;DHT22;53236;43.666;18.444;2023-05-14T13:54:49;16.10;99.90
65462;DHT22;53236;43.666;18.444;2023-05-14T13:57:14;16.10;99.90
65462;DHT22;53236;43.666;18.444;2023-05-14T13:59:40;16.00;99.90
65462;DHT22;53236;43.666;18.444;2023-05-14T14:02:06;16.00;99.90
65462;DHT22;53236;43.666;18.444;2023-05-14T14:04:32;15.90;99.90
65462;DHT22;53236;43.666;18.444;2023-05-14T14:06:58;15.80;99.90
65462;DHT22;53236;43.666;18.444;2023-05-14T14:09:24;15.80;99.90
65462;DHT22;53236;43.666;18.444;2023-05-14T14:11:50;15.80;99.90
65462;DHT22;53236;43.666;18.444;2023-05-14T14:14:17;15.80;99.90
65462;DHT22;53236;43.666;18.444;2023-05-14T14:16:43;15.70;99.90
65462;DHT22;53236;43.666;18.444;2023-05-14T14:19:09;15.70;99.90
65462;DHT22;53236;43.666;18.444;2023-05-14T14:21:35;15.60;99.90
65462;DHT22;53236;43.666;18.444;2023-05-14T14:24:04;15.60;99.90
65462;DHT22;53236;43.666;18.444;2023-05-14T14:26:30;15.50;99.90
65462;DHT22;53236;43.666;18.444;2023-05-14T14:28:56;15.50;99.90
65462;DHT22;53236;43.666;18.444;2023-05-14T14:31:23;15.50;99.90
65462;DHT22;53236;43.666;18.444;2023-05-14T14:33:49;15.40;99.90
65462;DHT22;53236;43.666;18.444;2023-05-14T14:36:16;15.40;99.90
65462;DHT22;53236;43.666;18.444;2023-05-14T14:38:42;15.30;99.90
65462;DHT22;53236;43.666;18.444;2023-05-14T14:41:08;15.20;99.90
65462;DHT22;53236;43.666;18.444;2023-05-14T14:43:37;15.20;99.90
65462;DHT22;53236;43.666;18.444;2023-05-14T14:46:04;15.20;99.90
65462;DHT22;53236;43.666;18.444;2023-05-14T14:48:34;15.10;99.90
65462;DHT22;53236;43.666;18.444;2023-05-14T14:51:03;15.20;99.90
65462;DHT22;53236;43.666;18.444;2023-05-14T14:53:30;15.20;99.90
65462;DHT22;53236;43.666;18.444;2023-05-14T14:55:56;15.30;99.90
65462;DHT22;53236;43.666;18.444;2023-05-14T14:58:22;15.30;99.90
65462;DHT22;53236;43.666;18.444;2023-05-14T15:00:53;15.20;99.90
65462;DHT22;53236;43.666;18.444;2023-05-14T15:03:19;15.20;99.90
65462;DHT22;53236;43.666;18.444;2023-05-14T15:05:45;15.20;99.90
65462;DHT22;53236;43.666;18.444;2023-05-14T15:08:12;15.20;99.90
65462;DHT22;53236;43.666;18.444;2023-05-14T15:10:40;15.20;99.90
65462;DHT22;53236;43.666;18.444;2023-05-14T15:13:07;15.20;99.90
65462;DHT22;53236;43.666;18.444;2023-05-14T15:15:34;15.40;99.90
65462;DHT22;53236;43.666;18.444;2023-05-14T15:18:01;15.40;99.90
65462;DHT22;53236;43.666;18.444;2023-05-14T15:20:27;15.40;99.90
65462;DHT22;53236;43.666;18.444;2023-05-14T15:22:54;15.40;99.90
65462;DHT22;53236;43.666;18.444;2023-05-14T15:25:21;15.40;99.90
65462;DHT22;53236;43.666;18.444;2023-05-14T15:27:47;15.40;99.90